Südanflug-Wetter

Südanflüge sind sowohl am Euroairport Basel-Mulhouse-Freiburg als auch am Flughafen Unique Zürich ein Thema für die Anwohner. In Basel hängen Südanflüge von den Windverhältnissen ab. Für den Euroairport Basel-Mulhouse-Freiburg bereitet MeteoNews deshalb aktuelle Winddaten auf, die direkt auf der Homepage des Flughafens eingebunden werden. Angaben zum Flughafen Zürich finden Sie hier.

In Zürich sind Südanflüge auf die Piste 34 möglich, wenn die horizontale Sichtweite mindestens 750 m beträgt und die Wolkenuntergrenze im Anflugsektor nicht tiefer als 300 Fuss (knapp 100 m) liegt (diese Werte gelten seit dem 1. November 2004).

Prognose für Südanflüge

Heute Pfingstmontag sollten Südanflüge möglich sein.
(Prognose ohne Gewähr. Die Vorhersage wird mehrmals täglich aktualisiert. Verantwortlicher Meteorologe: Patrick Suter, 21.05.2018 15:20)

Analyse der letzten METAR-Messungen

Unser Tool wertet die letzten 20 offiziellen Wettermeldungen (METAR) des Flughafens Zürich aus und entscheidet aufgrund der beiden Werte für Sichtweite und Ceiling (Hauptwolkenuntergrenze), ob Südanflüge nach obiger Definition möglich wären. Allerdings repräsentiert der Wert für die Wolkenuntergrenze in der METAR-Meldung nicht die Bewölkung im Anflugsektor sondern generell um den Flughafen. Da über die Bewölkung im Anflugsektor kurzfristig aufgrund von Beobachtungen des Towers und von Piloten entschieden wird, kann die Angabe unseres Tools in gewissen Fällen von den realen Entscheiden der Flugsicherung abweichen.

Südanflüge Datum Uhrzeit Sichtweite Ceiling Vollständige METAR-Meldung
möglich 2018-05-21 22:20:00 > 10 km LSZH 212020Z VRB01KT CAVOK 13/11 Q1012 NOSIG
möglich 2018-05-21 21:50:00 > 10 km LSZH 211950Z 05002KT CAVOK 14/12 Q1013 NOSIG
möglich 2018-05-21 21:20:00 > 10 km LSZH 211920Z 34002KT CAVOK 14/12 Q1012 NOSIG
möglich 2018-05-21 20:50:00 > 10 km LSZH 211850Z 29006KT 9999 FEW040 SCT080 BKN220 15/11 Q1012 NOSIG
möglich 2018-05-21 20:20:00 > 10 km 4880 m LSZH 211820Z 29005KT 9999 VCSH FEW040 SCT080 BKN160 16/11 Q1012 NOSIG
möglich 2018-05-21 19:50:00 > 10 km 4270 m LSZH 211750Z VRB02KT 9999 VCSH FEW035 FEW040CB BKN140 17/12 Q1012 NOSIG
möglich 2018-05-21 19:20:00 > 10 km 3660 m LSZH 211720Z 29005KT 250V030 9999 VCSH FEW035 FEW040CB BKN120 17/12 Q1012 NOSIG
möglich 2018-05-21 18:50:00 > 10 km LSZH 211650Z 18004KT 090V210 9999 VCTS -SHRA FEW035 FEW040CB SCT080 16/13 Q1012 NOSIG
möglich 2018-05-21 18:20:00 > 10 km 2440 m LSZH 211620Z 06005KT 010V140 9999 VCTS -SHRA FEW035 SCT040CB BKN080 17/11 Q1012 RETSRA NOSIG
möglich 2018-05-21 17:50:00 > 10 km 1980 m LSZH 211550Z 13019KT 9999 4000S TSRA FEW030 BKN065CB 17/08 Q1012 TEMPO NSW
möglich 2018-05-21 17:20:00 > 10 km LSZH 211520Z VRB03KT 9999 FEW065CB SCT070TCU 24/08 Q1012 TEMPO TSRA
möglich 2018-05-21 16:50:00 > 10 km LSZH 211450Z 32004KT 300V020 9999 FEW060 FEW065CB 23/08 Q1012 TEMPO TSRA
möglich 2018-05-21 16:20:00 > 10 km LSZH 211420Z VRB02KT 9999 FEW060 FEW065CB 25/08 Q1012 NOSIG
möglich 2018-05-21 15:50:00 > 10 km LSZH 211350Z 22003KT 110V290 9999 FEW055 FEW060CB 24/09 Q1012 NOSIG
möglich 2018-05-21 15:20:00 > 10 km LSZH 211320Z 31003KT 250V010 9999 FEW055 FEW060TCU 23/07 Q1013 NOSIG
möglich 2018-05-21 14:50:00 > 10 km LSZH 211250Z 33004KT 290V010 9999 FEW050 FEW055TCU 23/07 Q1013 NOSIG
möglich 2018-05-21 14:20:00 > 10 km LSZH 211220Z VRB03KT 9999 FEW050 FEW055TCU 23/09 Q1013 NOSIG
möglich 2018-05-21 13:50:00 > 10 km LSZH 211150Z 30004KT 250V360 9999 FEW045 SCT250 22/10 Q1013 NOSIG
möglich 2018-05-21 13:20:00 > 10 km LSZH 211120Z VRB02KT 9999 FEW040 SCT210 22/10 Q1014 NOSIG
möglich 2018-05-21 12:50:00 > 10 km LSZH 211050Z VRB02KT 9999 FEW034 SCT210 21/11 Q1014 NOSIG